Time;durP1;ratioP1;P1;durP2;ratioP2;P2;SDS_P1;SDS_P2;PMS_P1;PMS_P2;Temp;Humidity;BMP_temperature;BMP_pressure;BME280_temperature;BME280_humidity;BME280_pressure;Samples;Min_cycle;Max_cycle;Signal;HPM_P1;HPM_P2
2022/09/18 00:00:16;;;;;;;22.45;15.07;;;10.20;99.90;;;;;;5055671;28;20052;-74
2022/09/18 00:02:44;;;;;;;22.95;14.48;;;10.20;99.90;;;;;;5053491;28;20500;-74
2022/09/18 00:05:11;;;;;;;29.90;17.48;;;10.20;99.90;;;;;;5035818;28;20073;-74
2022/09/18 00:07:38;;;;;;;27.50;16.23;;;10.30;99.90;;;;;;5035677;28;20053;-74
2022/09/18 00:10:08;;;;;;;25.08;14.95;;;10.30;99.90;;;;;;5062992;28;20067;-75
2022/09/18 00:12:36;;;;;;;21.55;14.18;;;10.30;99.90;;;;;;5074206;28;20117;-76
2022/09/18 00:15:03;;;;;;;24.48;15.38;;;10.30;99.90;;;;;;5073299;28;20094;-76
2022/09/18 00:17:30;;;;;;;25.45;14.38;;;10.30;99.90;;;;;;5072459;28;20535;-75
2022/09/18 00:19:58;;;;;;;20.58;13.95;;;10.30;99.90;;;;;;5072255;28;20060;-76
2022/09/18 00:22:25;;;;;;;24.48;14.80;;;10.30;99.90;;;;;;5072245;28;20093;-75
2022/09/18 00:24:52;;;;;;;23.30;13.98;;;10.20;99.90;;;;;;5072209;28;20068;-76
2022/09/18 00:27:21;;;;;;;24.92;13.73;;;10.20;99.90;;;;;;5072061;28;20072;-75
2022/09/18 00:29:48;;;;;;;21.17;13.00;;;10.20;99.90;;;;;;5072002;28;20097;-76
2022/09/18 00:32:15;;;;;;;21.20;12.38;;;10.30;99.90;;;;;;5062043;28;20041;-75
2022/09/18 00:34:42;;;;;;;19.52;11.38;;;10.30;99.90;;;;;;5055150;28;20075;-74
2022/09/18 00:37:10;;;;;;;19.15;12.23;;;10.30;99.90;;;;;;5055642;28;20068;-75
2022/09/18 00:39:38;;;;;;;19.42;12.27;;;10.20;99.90;;;;;;5055297;28;20047;-75
2022/09/18 00:42:05;;;;;;;19.98;12.60;;;10.20;99.90;;;;;;5055386;28;20048;-75
2022/09/18 00:44:40;;;;;;;23.42;13.27;;;10.30;99.90;;;;;;5072725;28;20093;-74
2022/09/18 00:47:17;;;;;;;19.70;12.55;;;10.30;99.90;;;;;;5075414;28;20055;-74
2022/09/18 00:49:50;;;;;;;23.92;14.00;;;10.30;99.90;;;;;;5077779;28;20106;-75
2022/09/18 00:52:20;;;;;;;18.92;12.10;;;10.30;99.90;;;;;;5090227;28;20040;-75
2022/09/18 00:54:51;;;;;;;23.02;11.95;;;10.30;99.90;;;;;;5069942;28;20484;-75
2022/09/18 00:57:22;;;;;;;20.13;12.50;;;10.30;99.90;;;;;;5080482;28;20130;-74
2022/09/18 00:59:52;;;;;;;19.95;12.93;;;10.30;99.90;;;;;;5059808;28;20519;-75
2022/09/18 01:02:20;;;;;;;24.30;12.93;;;10.30;99.90;;;;;;5072459;28;20041;-77
2022/09/18 01:04:48;;;;;;;20.05;12.85;;;10.30;99.90;;;;;;5071853;28;20067;-76
2022/09/18 01:07:28;;;;;;;21.70;12.90;;;10.30;99.90;;;;;;5091444;28;20075;-75
2022/09/18 01:10:03;;;;;;;21.80;12.80;;;10.30;99.90;;;;;;5069475;28;20055;-75
2022/09/18 01:12:38;;;;;;;23.08;12.90;;;10.30;99.90;;;;;;5085953;28;20044;-74
2022/09/18 01:15:17;;;;;;;22.95;13.38;;;10.30;99.90;;;;;;5087646;28;20047;-74
2022/09/18 01:17:50;;;;;;;23.60;13.40;;;10.30;99.90;;;;;;5074686;28;20048;-74
2022/09/18 01:20:35;;;;;;;26.52;12.73;;;10.20;99.90;;;;;;5077299;28;20563;-76
2022/09/18 01:23:23;;;;;;;34.10;13.10;;;10.20;99.90;;;;;;5074617;28;20060;-75
2022/09/18 01:26:03;;;;;;;27.02;13.60;;;10.10;99.90;;;;;;5076703;28;20293;-76
2022/09/18 01:28:37;;;;;;;28.10;13.23;;;10.00;99.90;;;;;;5094414;28;20070;-76
2022/09/18 01:31:12;;;;;;;26.38;13.55;;;10.00;99.90;;;;;;5099292;28;20028;-76
2022/09/18 01:33:46;;;;;;;26.00;13.03;;;10.10;99.90;;;;;;5098411;28;20055;-75
2022/09/18 01:36:17;;;;;;;28.02;13.75;;;10.00;99.90;;;;;;5097303;28;20055;-76
2022/09/18 01:38:50;;;;;;;28.45;13.73;;;10.10;99.90;;;;;;5097104;28;20068;-74
2022/09/18 01:41:20;;;;;;;27.67;13.10;;;10.00;99.90;;;;;;5083920;28;20056;-75
2022/09/18 01:43:54;;;;;;;29.73;13.70;;;10.10;99.90;;;;;;5082502;28;20148;-75
2022/09/18 01:46:24;;;;;;;27.23;13.85;;;10.10;99.90;;;;;;5068458;28;20037;-75
2022/09/18 01:48:55;;;;;;;29.02;13.45;;;10.10;99.90;;;;;;5069115;28;20048;-74
2022/09/18 01:51:25;;;;;;;29.50;14.80;;;10.00;99.90;;;;;;5066533;28;20048;-75
2022/09/18 01:53:57;;;;;;;31.77;15.02;;;10.00;99.90;;;;;;5066854;28;20115;-75
2022/09/18 01:56:28;;;;;;;33.97;15.77;;;9.90;99.90;;;;;;5082319;28;20044;-76
2022/09/18 01:58:59;;;;;;;31.00;14.57;;;9.90;99.90;;;;;;5069782;28;20039;-76
2022/09/18 02:01:41;;;;;;;34.10;16.65;;;10.00;99.90;;;;;;5047268;28;20132;-75
2022/09/18 02:04:13;;;;;;;33.58;16.83;;;9.80;99.90;;;;;;5065856;28;20041;-74
2022/09/18 02:06:47;;;;;;;37.67;17.42;;;9.80;99.90;;;;;;5096891;28;20056;-74
2022/09/18 02:09:17;;;;;;;37.30;17.10;;;9.70;99.90;;;;;;5096114;28;20104;-76
2022/09/18 02:11:55;;;;;;;35.95;17.67;;;9.70;99.90;;;;;;5097186;28;20041;-75
2022/09/18 02:14:28;;;;;;;35.63;18.35;;;9.70;99.90;;;;;;5093982;28;20116;-75
2022/09/18 02:17:08;;;;;;;35.45;18.23;;;9.70;99.90;;;;;;5095101;28;20052;-75
2022/09/18 02:19:39;;;;;;;35.75;19.48;;;9.80;99.90;;;;;;5092870;28;20053;-76
2022/09/18 02:22:11;;;;;;;36.03;18.50;;;9.80;99.90;;;;;;5071157;28;20052;-75
2022/09/18 02:24:41;;;;;;;40.05;18.38;;;9.70;99.90;;;;;;5063378;28;20094;-75
2022/09/18 02:27:11;;;;;;;37.17;18.95;;;9.70;99.90;;;;;;5063808;28;20068;-75
2022/09/18 02:29:44;;;;;;;41.85;21.52;;;9.60;99.90;;;;;;5059812;28;20041;-75
2022/09/18 02:32:12;;;;;;;46.28;21.42;;;9.60;99.90;;;;;;5061993;28;20044;-76
2022/09/18 02:34:41;;;;;;;36.17;21.27;;;9.60;99.90;;;;;;5079773;28;20042;-75
2022/09/18 02:37:37;;;;;;;44.38;21.85;;;9.60;99.90;;;;;;5061135;28;20070;-75
2022/09/18 02:40:19;;;;;;;34.28;19.63;;;9.60;99.90;;;;;;5060773;28;20511;-75
2022/09/18 02:42:55;;;;;;;41.55;19.50;;;9.60;99.90;;;;;;5058276;28;20056;-74
2022/09/18 02:45:32;;;;;;;36.92;18.55;;;9.60;99.90;;;;;;5057428;28;20048;-74
2022/09/18 02:48:23;;;;;;;37.67;21.30;;;9.60;99.90;;;;;;5057089;28;20049;-75
2022/09/18 02:51:02;;;;;;;40.35;20.60;;;9.60;99.90;;;;;;5056806;28;20414;-75
2022/09/18 02:53:34;;;;;;;39.10;20.45;;;9.50;99.90;;;;;;5056361;28;20101;-75
2022/09/18 02:56:05;;;;;;;38.53;19.92;;;9.50;99.90;;;;;;5056419;28;20036;-74
2022/09/18 02:58:40;;;;;;;37.63;20.38;;;9.50;99.90;;;;;;5056946;28;20522;-75
2022/09/18 03:01:12;;;;;;;40.10;19.75;;;9.50;99.90;;;;;;5056747;28;20458;-76
2022/09/18 03:03:40;;;;;;;34.55;19.52;;;9.40;99.90;;;;;;5073264;28;20037;-75
2022/09/18 03:06:10;;;;;;;31.70;17.80;;;9.40;99.90;;;;;;5073264;28;20045;-76
2022/09/18 03:08:38;;;;;;;32.60;16.50;;;9.40;99.90;;;;;;5072972;28;20507;-75
2022/09/18 03:11:06;;;;;;;30.05;14.05;;;9.30;99.90;;;;;;5072959;28;20469;-75
2022/09/18 03:13:34;;;;;;;23.98;13.02;;;9.30;99.90;;;;;;5063643;28;20048;-75
2022/09/18 03:16:03;;;;;;;24.27;13.15;;;9.20;99.90;;;;;;5069738;28;20491;-75
2022/09/18 03:18:32;;;;;;;26.88;13.27;;;9.10;99.90;;;;;;5056571;28;20123;-75
2022/09/18 03:21:00;;;;;;;28.92;15.10;;;9.10;99.90;;;;;;5056505;28;20078;-75
2022/09/18 03:23:30;;;;;;;37.88;18.58;;;9.00;99.90;;;;;;5056351;28;20055;-75
2022/09/18 03:26:10;;;;;;;34.55;19.15;;;9.00;99.90;;;;;;5052871;28;20049;-75
2022/09/18 03:28:37;;;;;;;37.22;19.33;;;9.00;99.90;;;;;;5053208;28;20071;-77
2022/09/18 03:31:05;;;;;;;37.95;19.73;;;9.00;99.90;;;;;;5060398;28;20048;-76
2022/09/18 03:33:35;;;;;;;33.60;19.52;;;9.00;99.90;;;;;;5072899;28;20052;-75
2022/09/18 03:36:02;;;;;;;41.10;19.58;;;8.90;99.90;;;;;;5072372;28;20068;-74
2022/09/18 03:38:30;;;;;;;40.60;21.17;;;8.90;99.90;;;;;;5072647;28;20619;-75
2022/09/18 03:40:58;;;;;;;49.28;20.50;;;9.00;99.90;;;;;;5072332;28;20048;-76
2022/09/18 03:43:26;;;;;;;38.25;20.17;;;8.90;99.90;;;;;;5063005;28;20434;-75
2022/09/18 03:45:53;;;;;;;34.08;19.02;;;8.90;99.90;;;;;;5055980;28;20380;-75
2022/09/18 03:48:21;;;;;;;36.35;18.83;;;8.80;99.90;;;;;;5056112;28;20215;-76
2022/09/18 03:50:51;;;;;;;34.97;18.75;;;8.70;99.90;;;;;;5056253;28;20045;-76
2022/09/18 03:53:20;;;;;;;37.28;18.30;;;8.70;99.90;;;;;;5055300;28;20491;-75
2022/09/18 03:56:17;;;;;;;34.63;16.90;;;8.70;99.90;;;;;;5041071;22;20056;-76
2022/09/18 03:59:05;;;;;;;39.20;19.20;;;8.70;99.90;;;;;;5039340;28;20061;-75
2022/09/18 04:01:52;;;;;;;37.90;19.33;;;8.70;99.90;;;;;;5019615;28;20057;-74
2022/09/18 04:04:26;;;;;;;43.08;22.55;;;8.70;99.90;;;;;;5033370;28;20148;-74
2022/09/18 04:06:55;;;;;;;52.08;24.55;;;8.80;99.90;;;;;;5068898;28;20064;-75
2022/09/18 04:09:42;;;;;;;85.28;25.02;;;8.90;99.90;;;;;;5040474;28;20056;-74
2022/09/18 04:12:10;;;;;;;59.47;25.33;;;8.90;99.90;;;;;;5059247;28;20120;-74
2022/09/18 04:14:38;;;;;;;52.15;24.67;;;8.90;99.90;;;;;;5060027;28;20072;-74
2022/09/18 04:17:05;;;;;;;50.00;23.25;;;8.90;99.90;;;;;;5056109;28;20047;-74
2022/09/18 04:19:32;;;;;;;112.05;23.15;;;8.90;99.90;;;;;;5051552;28;20104;-74
2022/09/18 04:22:02;;;;;;;211.90;25.92;;;8.90;99.90;;;;;;5052671;28;20041;-75
2022/09/18 04:24:29;;;;;;;58.92;21.73;;;8.80;99.90;;;;;;5052141;28;20136;-74
2022/09/18 04:26:57;;;;;;;254.57;29.00;;;8.80;99.90;;;;;;5053355;28;20049;-74
2022/09/18 04:29:27;;;;;;;197.48;27.65;;;8.80;99.90;;;;;;5050397;28;20140;-73
2022/09/18 04:31:54;;;;;;;211.73;29.15;;;8.80;99.90;;;;;;5052833;28;20094;-74
2022/09/18 04:34:23;;;;;;;78.47;25.52;;;8.80;99.90;;;;;;5051814;28;20045;-73
2022/09/18 04:36:50;;;;;;;148.98;27.70;;;8.80;99.90;;;;;;5070461;28;20045;-73
2022/09/18 04:39:19;;;;;;;72.40;26.38;;;8.80;99.90;;;;;;5050006;28;20554;-75
2022/09/18 04:41:49;;;;;;;73.93;26.30;;;8.90;99.90;;;;;;5051583;28;20102;-74
2022/09/18 04:44:17;;;;;;;118.45;26.98;;;8.90;99.90;;;;;;5036719;28;20428;-74
2022/09/18 04:46:45;;;;;;;159.77;27.70;;;9.00;99.90;;;;;;5031660;28;20045;-75
2022/09/18 04:49:17;;;;;;;115.22;26.25;;;8.90;99.90;;;;;;5027998;28;20166;-75
2022/09/18 04:51:45;;;;;;;103.85;25.05;;;8.90;99.90;;;;;;5044988;28;20106;-74
2022/09/18 04:54:14;;;;;;;108.03;23.05;;;8.90;99.90;;;;;;5054560;28;20075;-75
2022/09/18 04:56:43;;;;;;;83.93;23.05;;;8.90;99.90;;;;;;5051237;28;20067;-75
2022/09/18 04:59:11;;;;;;;72.45;22.90;;;8.80;99.90;;;;;;5035114;28;20077;-76
2022/09/18 05:01:42;;;;;;;57.78;24.50;;;8.90;99.90;;;;;;5035658;28;20060;-75
2022/09/18 05:04:12;;;;;;;60.83;23.20;;;9.00;99.90;;;;;;5028025;28;20068;-75
2022/09/18 05:06:48;;;;;;;90.70;22.77;;;9.10;99.90;;;;;;5036812;28;20040;-79
2022/09/18 05:09:17;;;;;;;98.70;23.30;;;9.20;99.90;;;;;;5036027;28;20053;-75
2022/09/18 05:11:46;;;;;;;193.50;24.00;;;9.10;99.90;;;;;;5034826;28;20059;-74
2022/09/18 05:14:15;;;;;;;125.45;19.63;;;9.00;99.90;;;;;;5034903;28;20052;-75
2022/09/18 05:16:47;;;;;;;57.45;17.80;;;8.80;99.90;;;;;;5033915;28;20132;-76
2022/09/18 05:19:53;;;;;;;39.70;16.65;;;8.90;99.90;;;;;;5038881;28;20170;-74
2022/09/18 05:22:25;;;;;;;41.20;15.45;;;8.70;99.90;;;;;;5037248;28;20127;-74
2022/09/18 05:24:53;;;;;;;27.15;13.02;;;8.80;99.90;;;;;;5037889;28;20071;-74
2022/09/18 05:27:21;;;;;;;20.45;11.23;;;9.00;99.90;;;;;;5055447;28;20038;-75
2022/09/18 05:29:49;;;;;;;23.33;12.32;;;9.20;99.90;;;;;;5037417;28;20049;-74
2022/09/18 05:32:21;;;;;;;32.97;11.48;;;9.40;99.90;;;;;;5039534;28;20049;-74
2022/09/18 05:34:49;;;;;;;34.40;12.50;;;9.50;99.90;;;;;;5040743;28;20041;-75
2022/09/18 05:37:18;;;;;;;31.48;12.18;;;9.50;99.90;;;;;;5039026;28;20106;-75
2022/09/18 05:39:48;;;;;;;19.65;11.32;;;9.60;99.90;;;;;;5038650;28;20099;-75
2022/09/18 05:42:15;;;;;;;18.02;11.07;;;9.70;99.90;;;;;;5055862;28;20065;-74
2022/09/18 05:44:45;;;;;;;17.45;10.20;;;9.80;99.90;;;;;;5038363;28;20044;-75
2022/09/18 05:47:18;;;;;;;14.07;9.50;;;9.90;99.90;;;;;;5038346;28;20048;-75
2022/09/18 05:49:45;;;;;;;21.70;12.85;;;10.00;99.90;;;;;;5038997;28;20056;-75
2022/09/18 05:52:12;;;;;;;20.50;13.95;;;10.10;99.90;;;;;;5040335;28;20076;-75
2022/09/18 05:54:40;;;;;;;25.80;14.38;;;10.10;99.90;;;;;;5045605;28;20049;-75
2022/09/18 05:57:09;;;;;;;23.45;13.45;;;10.10;99.90;;;;;;5045635;28;20069;-75
2022/09/18 05:59:36;;;;;;;23.77;14.65;;;10.20;99.90;;;;;;5046145;28;20048;-75
2022/09/18 06:02:06;;;;;;;24.30;14.68;;;10.30;99.90;;;;;;5055825;28;20055;-74
2022/09/18 06:04:54;;;;;;;19.58;12.02;;;10.40;99.90;;;;;;5037681;28;20082;-76
2022/09/18 06:07:21;;;;;;;23.13;13.02;;;10.60;99.90;;;;;;5037745;28;20135;-75
2022/09/18 06:09:49;;;;;;;22.17;13.80;;;10.80;99.90;;;;;;5038556;28;20037;-74
2022/09/18 06:12:16;;;;;;;23.67;13.55;;;10.80;99.90;;;;;;5039441;28;20076;-74
2022/09/18 06:14:44;;;;;;;25.80;13.98;;;11.00;99.90;;;;;;5040309;28;20530;-74
2022/09/18 06:17:13;;;;;;;19.95;12.57;;;11.10;99.90;;;;;;5037045;28;20098;-75
2022/09/18 06:19:40;;;;;;;19.60;13.70;;;11.30;99.90;;;;;;5038037;28;20461;-74
2022/09/18 06:22:08;;;;;;;22.17;14.00;;;11.50;99.90;;;;;;5037941;28;20426;-75
2022/09/18 06:24:36;;;;;;;18.40;11.48;;;11.80;99.90;;;;;;5037081;28;20511;-74
2022/09/18 06:27:27;;;;;;;65.88;41.05;;;12.00;99.90;;;;;;5054959;28;20134;-75
2022/09/18 06:29:54;;;;;;;20.02;13.68;;;12.20;99.90;;;;;;5038221;28;20480;-73
2022/09/18 06:32:34;;;;;;;23.08;13.48;;;12.50;99.90;;;;;;5036659;28;20396;-74
2022/09/18 06:35:01;;;;;;;28.13;14.93;;;12.60;99.90;;;;;;5036378;28;20045;-74
2022/09/18 06:37:29;;;;;;;21.10;12.93;;;12.90;99.90;;;;;;5036965;28;20549;-75
2022/09/18 06:40:16;;;;;;;16.98;12.20;;;13.30;99.90;;;;;;5038732;28;20049;-76
2022/09/18 06:43:06;;;;;;;17.20;11.02;;;13.70;99.90;;;;;;5036920;28;20045;-72
2022/09/18 06:45:58;;;;;;;16.38;11.05;;;13.60;99.90;;;;;;5028539;28;20052;-73
2022/09/18 06:48:29;;;;;;;17.67;12.30;;;13.10;99.90;;;;;;5026229;28;20121;-73
2022/09/18 06:50:59;;;;;;;14.98;10.80;;;13.30;99.90;;;;;;5028193;28;20452;-73
2022/09/18 06:53:29;;;;;;;16.05;11.48;;;12.80;99.90;;;;;;5031049;28;20500;-74
2022/09/18 06:56:02;;;;;;;15.85;12.02;;;12.60;99.90;;;;;;5046077;28;20048;-74
2022/09/18 06:58:33;;;;;;;15.88;11.98;;;12.50;99.90;;;;;;5034059;28;20059;-75
2022/09/18 07:01:01;;;;;;;17.70;12.30;;;12.40;99.90;;;;;;5047963;28;20033;-75
2022/09/18 07:03:36;;;;;;;16.42;12.20;;;12.20;99.90;;;;;;5033131;28;20132;-74
2022/09/18 07:06:19;;;;;;;19.35;12.82;;;12.10;99.90;;;;;;5037567;28;20562;-75
2022/09/18 07:08:49;;;;;;;17.10;13.68;;;12.10;99.90;;;;;;5037353;28;20147;-75
2022/09/18 07:11:36;;;;;;;17.00;13.20;;;12.30;99.90;;;;;;5057077;28;20048;-74
2022/09/18 07:14:06;;;;;;;16.75;12.00;;;12.40;99.90;;;;;;5053993;28;20048;-75
2022/09/18 07:16:34;;;;;;;16.23;11.25;;;12.70;99.90;;;;;;5043972;28;20143;-74
2022/09/18 07:19:04;;;;;;;18.70;11.02;;;12.90;99.90;;;;;;5036008;28;20088;-75
2022/09/18 07:21:32;;;;;;;17.45;11.15;;;12.90;99.90;;;;;;5019571;28;20111;-75
2022/09/18 07:23:59;;;;;;;13.35;9.57;;;13.00;99.90;;;;;;5024532;28;20041;-75
2022/09/18 07:26:26;;;;;;;13.70;9.13;;;13.00;99.90;;;;;;5035783;28;20040;-74
2022/09/18 07:28:54;;;;;;;18.30;8.90;;;13.00;99.90;;;;;;5035798;28;20075;-75
2022/09/18 07:31:27;;;;;;;13.57;8.52;;;13.20;99.90;;;;;;5035896;28;20076;-75
2022/09/18 07:33:56;;;;;;;13.82;8.95;;;13.30;99.90;;;;;;5035596;28;20074;-75
2022/09/18 07:36:29;;;;;;;11.43;7.63;;;13.60;99.90;;;;;;5052063;28;20047;-75
2022/09/18 07:38:56;;;;;;;13.27;8.75;;;13.70;99.90;;;;;;5036246;28;20056;-75
2022/09/18 07:41:28;;;;;;;16.05;10.00;;;13.70;99.90;;;;;;5036481;28;20049;-75
2022/09/18 07:43:55;;;;;;;14.80;8.45;;;13.90;99.90;;;;;;5033042;28;20049;-75
2022/09/18 07:46:22;;;;;;;14.40;8.82;;;14.00;99.90;;;;;;5051876;28;20047;-74
2022/09/18 07:48:53;;;;;;;12.68;7.85;;;14.10;99.90;;;;;;5035751;28;20057;-74
2022/09/18 07:51:25;;;;;;;13.15;8.40;;;14.30;99.90;;;;;;5038161;28;20075;-78
2022/09/18 07:53:55;;;;;;;10.55;6.90;;;14.30;99.90;;;;;;5039998;28;20067;-67
2022/09/18 07:56:34;;;;;;;11.02;6.68;;;14.60;99.90;;;;;;5023016;28;20073;-77
2022/09/18 07:59:02;;;;;;;12.98;7.20;;;14.90;99.90;;;;;;5054576;28;20522;-70
2022/09/18 08:01:34;;;;;;;9.07;6.05;;;15.00;99.90;;;;;;5059190;28;20082;-80
2022/09/18 08:04:02;;;;;;;22.58;13.98;;;15.20;99.90;;;;;;5064181;28;20052;-80
2022/09/18 08:06:53;;;;;;;24.67;16.33;;;15.30;1.00;;;;;;5068149;28;20047;-69
2022/09/18 08:09:48;;;;;;;9.65;5.57;;;15.50;1.00;;;;;;5049434;28;20228;-71
2022/09/18 08:12:36;;;;;;;13.35;9.43;;;15.50;1.00;;;;;;5073391;28;20052;-70
2022/09/18 08:15:29;;;;;;;10.13;5.75;;;15.60;1.00;;;;;;5046724;28;20146;-70
2022/09/18 08:18:13;;;;;;;18.95;11.50;;;15.40;1.00;;;;;;5051362;28;20044;-70
2022/09/18 08:21:18;;;;;;;10.45;5.82;;;15.50;1.00;;;;;;4994442;28;20062;-69
2022/09/18 08:23:49;;;;;;;7.57;5.05;;;15.70;1.00;;;;;;4989217;28;20046;-71
2022/09/18 08:26:18;;;;;;;11.15;4.72;;;15.80;1.00;;;;;;5010870;28;20068;-70
2022/09/18 08:28:45;;;;;;;12.07;5.50;;;15.90;1.00;;;;;;5051095;28;20056;-71
2022/09/18 08:31:12;;;;;;;9.70;4.93;;;16.00;99.90;;;;;;5071610;28;20067;-70
2022/09/18 08:33:40;;;;;;;12.32;6.53;;;15.90;97.40;;;;;;5072177;28;20447;-70
2022/09/18 08:36:09;;;;;;;15.40;7.68;;;15.90;99.90;;;;;;5071999;28;20114;-72
2022/09/18 08:38:39;;;;;;;12.45;7.38;;;16.00;1.00;;;;;;5055267;28;20136;-71
2022/09/18 08:41:54;;;;;;;12.80;4.38;;;16.20;99.90;;;;;;5071938;28;20055;-72
2022/09/18 08:44:25;;;;;;;8.20;4.95;;;16.30;1.00;;;;;;5072338;28;20041;-72
2022/09/18 08:47:02;;;;;;;9.07;5.30;;;16.40;1.00;;;;;;5055582;28;20092;-72
2022/09/18 08:49:30;;;;;;;;;;;16.40;34.20;;;;;;5056053;28;20048;-70
2022/09/18 08:52:06;;;;;;;5.55;3.20;;;16.50;24.60;;;;;;5054911;28;20064;-71
2022/09/18 08:54:45;;;;;;;7.18;4.20;;;16.60;99.80;;;;;;5061397;28;20052;-71
2022/09/18 08:57:36;;;;;;;5.57;3.50;;;16.50;99.90;;;;;;5071187;28;20526;-71
2022/09/18 09:00:16;;;;;;;6.88;3.22;;;16.50;99.90;;;;;;5072001;28;20044;-70
2022/09/18 09:02:52;;;;;;;9.20;5.43;;;16.50;99.90;;;;;;5071710;28;20062;-71
2022/09/18 09:05:22;;;;;;;10.30;4.72;;;16.40;99.90;;;;;;5071358;28;20127;-71
2022/09/18 09:08:03;;;;;;;7.22;2.45;;;16.60;99.90;;;;;;5072939;28;20033;-71
2022/09/18 09:10:41;;;;;;;8.32;2.88;;;16.80;99.90;;;;;;5051818;28;20058;-72
2022/09/18 09:13:34;;;;;;;8.18;4.05;;;16.70;99.90;;;;;;5057290;28;20059;-71
2022/09/18 09:16:07;;;;;;;4.43;2.17;;;16.80;99.90;;;;;;5070473;28;20579;-71
2022/09/18 09:18:46;;;;;;;6.38;3.58;;;16.70;99.90;;;;;;5060146;28;20044;-71
2022/09/18 09:21:21;;;;;;;6.07;3.58;;;16.70;99.90;;;;;;5077159;28;20487;-71
2022/09/18 09:24:04;;;;;;;6.35;3.53;;;16.90;99.90;;;;;;5065100;28;20037;-71
2022/09/18 09:26:56;;;;;;;7.60;4.10;;;16.90;99.90;;;;;;5043697;28;20092;-71
2022/09/18 09:29:46;;;;;;;6.50;3.05;;;16.90;99.90;;;;;;5060580;28;20740;-71
2022/09/18 09:32:27;;;;;;;5.32;2.78;;;17.00;99.90;;;;;;5076315;28;20044;-70
2022/09/18 09:35:30;;;;;;;5.55;2.67;;;17.20;99.90;;;;;;5038588;28;20056;-69
2022/09/18 09:38:16;;;;;;;4.40;2.33;;;17.30;99.90;;;;;;5059007;28;20160;-68
2022/09/18 09:40:47;;;;;;;7.68;4.38;;;17.40;99.90;;;;;;5058975;28;20137;-69
2022/09/18 09:43:23;;;;;;;3.05;1.27;;;17.50;99.90;;;;;;5058251;28;20090;-69
2022/09/18 09:45:54;;;;;;;13.32;6.43;;;17.40;96.10;;;;;;5058022;28;20056;-69
2022/09/18 09:48:27;;;;;;;7.13;3.50;;;17.40;97.80;;;;;;5074777;28;20529;-69
2022/09/18 09:50:59;;;;;;;4.03;2.25;;;17.40;97.70;;;;;;5058445;28;20123;-68
2022/09/18 09:53:27;;;;;;;5.30;2.65;;;17.30;96.70;;;;;;5057748;28;20143;-70
2022/09/18 09:56:07;;;;;;;4.80;2.85;;;17.40;97.00;;;;;;5057233;28;20049;-69
2022/09/18 09:58:44;;;;;;;6.72;2.13;;;17.60;96.70;;;;;;5059018;28;20055;-69
2022/09/18 10:01:18;;;;;;;6.95;2.15;;;17.60;96.00;;;;;;5058194;28;20060;-70
2022/09/18 10:03:57;;;;;;;5.63;1.98;;;17.60;96.60;;;;;;5057668;28;20048;-69
2022/09/18 10:06:39;;;;;;;7.40;3.40;;;17.70;96.70;;;;;;5057805;28;20526;-70
2022/09/18 10:09:15;;;;;;;3.80;1.45;;;17.70;97.10;;;;;;5058102;28;20044;-69
2022/09/18 10:11:50;;;;;;;2.22;1.10;;;17.80;95.60;;;;;;5077951;28;20147;-68
2022/09/18 10:14:21;;;;;;;8.13;3.83;;;17.80;96.30;;;;;;5058964;28;20040;-69
2022/09/18 10:16:53;;;;;;;8.32;5.38;;;17.80;96.40;;;;;;5057687;28;20189;-69
2022/09/18 10:19:24;;;;;;;4.40;1.73;;;17.90;96.20;;;;;;5056615;28;20055;-69
2022/09/18 10:21:54;;;;;;;7.80;2.45;;;17.90;96.00;;;;;;5057571;28;20145;-70
2022/09/18 10:24:26;;;;;;;7.63;3.13;;;18.00;96.70;;;;;;5057308;28;20052;-68
2022/09/18 10:27:00;;;;;;;7.18;3.50;;;18.20;96.90;;;;;;5057067;28;20498;-69
2022/09/18 10:29:30;;;;;;;10.95;3.75;;;18.10;95.90;;;;;;5057083;28;20048;-69
2022/09/18 10:32:02;;;;;;;6.10;3.70;;;18.20;95.00;;;;;;5057007;28;20139;-69
2022/09/18 10:34:39;;;;;;;5.68;2.45;;;18.30;94.60;;;;;;5057160;28;20419;-69
2022/09/18 10:37:14;;;;;;;4.13;1.75;;;18.30;94.10;;;;;;5056919;28;20052;-69
2022/09/18 10:39:50;;;;;;;5.10;1.40;;;18.30;92.80;;;;;;5057367;28;20044;-68
2022/09/18 10:42:19;;;;;;;;;;;18.40;92.10;;;;;;5057610;28;20500;-69
2022/09/18 10:44:53;;;;;;;6.15;2.75;;;18.30;93.30;;;;;;5056819;28;19969;-69
2022/09/18 10:47:29;;;;;;;6.78;2.30;;;18.40;92.90;;;;;;5056705;28;20459;-69
2022/09/18 10:50:01;;;;;;;2.55;1.15;;;18.20;91.30;;;;;;5056850;28;20056;-69
2022/09/18 10:52:35;;;;;;;3.17;1.17;;;18.10;87.20;;;;;;5056520;28;20453;-70
2022/09/18 10:55:17;;;;;;;3.20;1.73;;;18.20;86.90;;;;;;5057561;28;20044;-69
2022/09/18 10:58:14;;;;;;;6.93;3.28;;;18.30;86.00;;;;;;5060355;28;20064;-69
2022/09/18 11:00:56;;;;;;;3.70;1.67;;;18.50;85.90;;;;;;5037944;28;20084;-69
2022/09/18 11:03:41;;;;;;;6.38;1.88;;;18.70;82.70;;;;;;5054606;28;20056;-69
2022/09/18 11:06:18;;;;;;;7.57;2.80;;;18.60;82.50;;;;;;5057338;28;20047;-69
2022/09/18 11:08:49;;;;;;;10.30;5.57;;;18.70;82.50;;;;;;5056392;28;20064;-69
2022/09/18 11:11:25;;;;;;;8.65;4.55;;;18.60;80.90;;;;;;5054785;28;20462;-69
2022/09/18 11:13:58;;;;;;;5.32;2.40;;;18.60;77.70;;;;;;5054703;28;20072;-70
2022/09/18 11:16:32;;;;;;;8.10;4.72;;;18.60;77.10;;;;;;5036097;28;20555;-69
2022/09/18 11:19:07;;;;;;;4.38;1.60;;;18.60;78.90;;;;;;5036368;28;20045;-69
2022/09/18 11:21:46;;;;;;;4.10;1.65;;;18.70;77.20;;;;;;5034129;28;20048;-69
2022/09/18 11:24:22;;;;;;;7.38;4.95;;;18.70;77.90;;;;;;5025972;28;20073;-69
2022/09/18 11:26:50;;;;;;;;;;;18.80;77.40;;;;;;5050475;28;20157;-69
2022/09/18 11:29:22;;;;;;;7.47;3.30;;;19.00;77.50;;;;;;5036073;28;19921;-70
2022/09/18 11:31:56;;;;;;;7.43;4.22;;;19.20;75.30;;;;;;5054107;28;20080;-69
2022/09/18 11:34:30;;;;;;;7.13;2.60;;;19.20;73.40;;;;;;5036243;28;20049;-70
2022/09/18 11:37:00;;;;;;;3.20;1.55;;;19.10;71.80;;;;;;5035965;28;20051;-69
2022/09/18 11:39:34;;;;;;;6.97;3.40;;;18.90;73.80;;;;;;5035978;28;20065;-69
2022/09/18 11:42:13;;;;;;;5.88;1.80;;;18.90;74.70;;;;;;5036244;28;20049;-69
2022/09/18 11:44:41;;;;;;;2.83;1.67;;;19.00;74.30;;;;;;5036674;28;20070;-69
2022/09/18 11:47:25;;;;;;;9.57;5.50;;;19.10;73.90;;;;;;5036033;28;20044;-68
2022/09/18 11:50:02;;;;;;;;;;;19.20;71.80;;;;;;5036806;28;20045;-70
2022/09/18 11:52:33;;;;;;;10.70;4.55;;;19.10;65.50;;;;;;5036416;28;20387;-69
2022/09/18 11:55:09;;;;;;;3.65;2.28;;;19.20;66.00;;;;;;5040811;28;20114;-71
2022/09/18 11:57:40;;;;;;;4.32;2.30;;;19.30;66.20;;;;;;5023432;28;20059;-72
2022/09/18 12:00:14;;;;;;;2.65;1.33;;;19.30;66.70;;;;;;5049942;28;20042;-71
2022/09/18 12:02:51;;;;;;;2.03;1.10;;;19.20;65.20;;;;;;5034387;28;20065;-73
2022/09/18 12:05:27;;;;;;;4.68;1.90;;;19.20;64.70;;;;;;5048975;28;20452;-72
2022/09/18 12:08:04;;;;;;;2.08;1.27;;;19.00;66.60;;;;;;5033785;28;20547;-72
2022/09/18 12:10:47;;;;;;;2.88;1.38;;;19.00;64.80;;;;;;5048785;28;20065;-71
2022/09/18 12:13:39;;;;;;;4.60;1.67;;;19.00;65.80;;;;;;5032190;28;20440;-71
2022/09/18 12:16:15;;;;;;;3.67;2.30;;;19.20;68.40;;;;;;5048148;28;20095;-72
2022/09/18 12:18:53;;;;;;;2.85;1.23;;;19.40;67.80;;;;;;5052502;28;20052;-73
2022/09/18 12:21:31;;;;;;;2.97;1.50;;;19.60;65.60;;;;;;5053566;28;20484;-73
2022/09/18 12:23:58;;;;;;;3.72;2.05;;;19.70;66.30;;;;;;5052083;28;20102;-73
2022/09/18 12:26:38;;;;;;;7.03;2.78;;;19.80;63.40;;;;;;5052061;28;20508;-73
2022/09/18 12:29:18;;;;;;;3.83;2.00;;;19.90;62.60;;;;;;5052950;28;20056;-72
2022/09/18 12:31:56;;;;;;;4.38;2.30;;;20.10;62.00;;;;;;5059109;28;20049;-72
2022/09/18 12:34:34;;;;;;;5.85;3.50;;;20.50;60.30;;;;;;5061754;28;20121;-71
2022/09/18 12:37:28;;;;;;;10.60;3.05;;;20.40;60.60;;;;;;5063241;28;20060;-72
2022/09/18 12:40:25;;;;;;;4.55;2.95;;;20.60;60.00;;;;;;5062082;28;20088;-72
2022/09/18 12:43:07;;;;;;;2.72;1.52;;;20.60;57.60;;;;;;5056276;28;20087;-71
2022/09/18 12:45:59;;;;;;;3.63;1.15;;;20.40;56.60;;;;;;5066437;28;20102;-72
2022/09/18 12:48:39;;;;;;;2.70;1.35;;;20.20;58.50;;;;;;5064543;28;20079;-71
2022/09/18 12:51:24;;;;;;;3.05;1.80;;;20.10;59.30;;;;;;5063222;28;20083;-71
2022/09/18 12:54:01;;;;;;;5.47;1.47;;;20.00;61.90;;;;;;5065599;28;20140;-71
2022/09/18 12:56:39;;;;;;;3.13;1.70;;;19.80;61.60;;;;;;5065182;28;20041;-72
2022/09/18 12:59:32;;;;;;;3.22;1.63;;;19.70;61.70;;;;;;5088935;28;20037;-71
2022/09/18 13:02:13;;;;;;;3.42;0.88;;;19.70;62.90;;;;;;5092563;28;20078;-72
2022/09/18 13:04:46;;;;;;;2.08;0.93;;;19.50;63.40;;;;;;5084322;28;20120;-71
2022/09/18 13:07:18;;;;;;;2.08;1.10;;;19.40;61.80;;;;;;5065526;28;20068;-73
2022/09/18 13:09:54;;;;;;;3.03;0.93;;;19.40;61.30;;;;;;5088103;28;20041;-73
2022/09/18 13:12:25;;;;;;;;;;;19.50;60.00;;;;;;5086436;28;20076;-72